createdAt,value
2018-12-15T00:02:12.591Z,14.73
2018-12-15T00:05:20.204Z,14.50
2018-12-15T00:08:26.075Z,11.97
2018-12-15T00:11:32.018Z,15.68
2018-12-15T00:14:38.467Z,16.37
2018-12-15T00:17:44.376Z,15.95
2018-12-15T00:20:50.292Z,16.60
2018-12-15T00:23:56.149Z,16.47
2018-12-15T00:27:01.787Z,16.53
2018-12-15T00:30:08.263Z,17.77
2018-12-15T00:33:13.868Z,15.72
2018-12-15T00:36:20.334Z,15.58
2018-12-15T00:39:26.207Z,17.05
2018-12-15T00:42:35.092Z,15.32
2018-12-15T00:45:41.028Z,17.15
2018-12-15T00:48:46.784Z,16.80
2018-12-15T00:51:52.383Z,14.00
2018-12-15T00:54:58.292Z,13.95
2018-12-15T00:58:04.176Z,15.40
2018-12-15T01:01:10.289Z,15.10
2018-12-15T01:04:16.613Z,14.53
2018-12-15T01:07:22.796Z,16.50
2018-12-15T01:10:28.685Z,16.12
2018-12-15T01:13:34.606Z,15.05
2018-12-15T01:16:40.231Z,15.85
2018-12-15T01:19:46.151Z,14.98
2018-12-15T01:22:51.731Z,15.68
2018-12-15T01:25:57.669Z,16.65
2018-12-15T01:29:03.820Z,13.97
2018-12-15T01:32:09.746Z,16.73
2018-12-15T01:35:15.629Z,16.23
2018-12-15T01:38:21.536Z,17.02
2018-12-15T01:41:27.398Z,16.20
2018-12-15T01:44:33.044Z,16.52
2018-12-15T01:47:39.192Z,14.28
2018-12-15T01:50:45.564Z,15.30
2018-12-15T01:53:51.461Z,16.42
2018-12-15T01:56:57.097Z,14.68
2018-12-15T02:00:02.821Z,14.90
2018-12-15T02:03:10.009Z,17.20
2018-12-15T02:06:15.897Z,16.00
2018-12-15T02:09:22.099Z,19.10
2018-12-15T02:12:28.456Z,15.15
2018-12-15T02:15:39.383Z,16.50
2018-12-15T02:18:47.152Z,19.70
2018-12-15T02:21:54.460Z,17.80
2018-12-15T02:25:01.821Z,18.65
2018-12-15T02:28:07.491Z,16.67
2018-12-15T02:31:13.098Z,20.37
2018-12-15T02:34:19.879Z,17.52
2018-12-15T02:37:25.767Z,16.62
2018-12-15T02:40:31.496Z,20.10
2018-12-15T02:43:37.106Z,22.13
2018-12-15T02:46:42.755Z,18.73
2018-12-15T02:49:48.361Z,19.02
2018-12-15T02:52:53.990Z,19.25
2018-12-15T02:55:59.977Z,19.40
2018-12-15T02:59:06.049Z,19.42
2018-12-15T03:02:11.978Z,17.80
2018-12-15T03:05:18.216Z,18.17
2018-12-15T03:08:23.834Z,19.40
2018-12-15T03:11:30.120Z,19.47
2018-12-15T03:14:36.036Z,20.02
2018-12-15T03:17:48.774Z,18.85
2018-12-15T03:21:02.883Z,21.50
2018-12-15T03:24:09.054Z,17.30
2018-12-15T03:27:14.951Z,17.50
2018-12-15T03:30:20.883Z,17.40
2018-12-15T03:33:26.964Z,18.77
2018-12-15T03:36:32.604Z,18.23
2018-12-15T03:39:38.335Z,19.93
2018-12-15T03:42:43.977Z,19.17
2018-12-15T03:45:50.622Z,16.07
2018-12-15T03:48:56.244Z,15.63
2018-12-15T03:52:02.130Z,17.10
2018-12-15T03:55:07.868Z,17.48
2018-12-15T03:58:13.772Z,18.80
2018-12-15T04:01:19.551Z,16.97
2018-12-15T04:04:25.162Z,19.67
2018-12-15T04:07:31.358Z,21.00
2018-12-15T04:10:37.277Z,18.75
2018-12-15T04:13:43.180Z,18.75
2018-12-15T04:16:48.831Z,18.00
2018-12-15T04:19:54.752Z,15.80
2018-12-15T04:23:01.067Z,16.60
2018-12-15T04:26:06.966Z,18.80
2018-12-15T04:29:13.514Z,15.63
2018-12-15T04:32:19.431Z,16.70
2018-12-15T04:35:25.315Z,18.35
2018-12-15T04:38:31.235Z,18.40
2018-12-15T04:41:36.833Z,16.37
2018-12-15T04:44:42.559Z,16.95
2018-12-15T04:47:48.484Z,17.70
2018-12-15T04:50:54.116Z,14.60
2018-12-15T04:53:59.712Z,14.47
2018-12-15T04:57:05.608Z,14.33
2018-12-15T05:00:11.638Z,13.20
2018-12-15T05:03:17.554Z,14.50
2018-12-15T05:06:26.197Z,14.07
2018-12-15T05:09:32.429Z,14.83
2018-12-15T05:12:38.028Z,13.93
2018-12-15T05:15:43.675Z,14.80
2018-12-15T05:18:49.589Z,13.47
2018-12-15T05:21:55.219Z,14.23
2018-12-15T05:25:01.081Z,14.68
2018-12-15T05:28:06.785Z,16.40
2018-12-15T05:31:12.419Z,14.43
2018-12-15T05:34:20.248Z,14.70
2018-12-15T05:37:26.042Z,12.73
2018-12-15T05:40:32.501Z,14.15
2018-12-15T05:43:38.102Z,12.58
2018-12-15T05:46:43.801Z,12.65
2018-12-15T05:49:49.741Z,12.50
2018-12-15T05:52:55.359Z,14.00
2018-12-15T05:56:00.970Z,14.18
2018-12-15T05:59:06.879Z,14.53
2018-12-15T06:02:14.965Z,13.17
2018-12-15T06:05:21.421Z,17.35
2018-12-15T06:08:27.322Z,16.45
2018-12-15T06:11:33.660Z,15.05
2018-12-15T06:14:39.304Z,17.10
2018-12-15T06:17:44.929Z,17.27
2018-12-15T06:20:50.860Z,15.97
2018-12-15T06:23:56.500Z,16.80
2018-12-15T06:27:02.133Z,20.00
2018-12-15T06:30:09.311Z,16.35
2018-12-15T06:33:15.308Z,16.73
2018-12-15T06:36:21.291Z,17.12
2018-12-15T06:39:26.913Z,16.50
2018-12-15T06:42:33.131Z,18.05
2018-12-15T06:45:40.125Z,17.07
2018-12-15T06:48:45.786Z,18.70
2018-12-15T06:51:51.667Z,20.17
2018-12-15T06:54:57.516Z,19.35
2018-12-15T06:58:03.090Z,17.93
2018-12-15T07:01:08.712Z,19.82
2018-12-15T07:04:14.668Z,17.60
2018-12-15T07:07:20.609Z,17.17
2018-12-15T07:10:26.468Z,18.10
2018-12-15T07:13:32.732Z,19.25
2018-12-15T07:16:38.407Z,16.80
2018-12-15T07:19:44.023Z,18.57
2018-12-15T07:22:49.617Z,18.05
2018-12-15T07:25:55.991Z,19.80
2018-12-15T07:29:02.037Z,18.05
2018-12-15T07:32:07.954Z,17.93
2018-12-15T07:35:13.584Z,17.90
2018-12-15T07:38:19.418Z,16.40
2018-12-15T07:41:25.621Z,15.68
2018-12-15T07:44:32.046Z,21.10
2018-12-15T07:47:37.984Z,14.85
2018-12-15T07:50:43.877Z,15.03
2018-12-15T07:53:49.515Z,15.10
2018-12-15T07:56:55.426Z,16.87
2018-12-15T08:00:01.113Z,15.38
2018-12-15T08:03:07.980Z,16.30
2018-12-15T08:06:13.589Z,15.37
2018-12-15T08:09:19.246Z,12.63
2018-12-15T08:12:30.241Z,13.32
2018-12-15T08:15:36.528Z,16.80
2018-12-15T08:18:42.327Z,13.65
2018-12-15T08:21:48.149Z,13.43
2018-12-15T08:24:53.837Z,13.70
2018-12-15T08:27:59.474Z,14.73
2018-12-15T08:31:05.111Z,13.67
2018-12-15T08:34:10.869Z,16.42
2018-12-15T08:37:17.139Z,13.68
2018-12-15T08:40:23.647Z,14.35
2018-12-15T08:43:29.784Z,15.38
2018-12-15T08:46:35.919Z,15.73
2018-12-15T08:49:42.260Z,14.75
2018-12-15T08:52:48.328Z,16.83
2018-12-15T08:55:54.479Z,15.85
2018-12-15T08:59:00.458Z,14.18
2018-12-15T09:02:06.856Z,15.03
2018-12-15T09:05:12.860Z,13.58
2018-12-15T09:08:18.949Z,12.30
2018-12-15T09:11:25.288Z,14.83
2018-12-15T09:14:30.899Z,16.42
2018-12-15T09:17:37.246Z,14.10
2018-12-15T09:20:43.136Z,14.33
2018-12-15T09:23:49.078Z,15.68
2018-12-15T09:26:54.805Z,16.00
2018-12-15T09:30:00.460Z,15.08
2018-12-15T09:33:08.229Z,14.65
2018-12-15T09:36:13.986Z,12.95
2018-12-15T09:39:20.626Z,14.78
2018-12-15T09:42:26.594Z,13.95
2018-12-15T09:45:32.753Z,16.70
2018-12-15T09:48:38.855Z,12.82
2018-12-15T09:51:44.971Z,15.45
2018-12-15T09:54:50.613Z,15.50
2018-12-15T09:57:56.241Z,14.58
2018-12-15T10:01:02.193Z,15.90
2018-12-15T10:04:08.376Z,16.70
2018-12-15T10:07:14.280Z,16.12
2018-12-15T10:10:20.717Z,15.05
2018-12-15T10:13:26.765Z,15.85
2018-12-15T10:16:32.563Z,12.60
2018-12-15T10:19:38.739Z,13.73
2018-12-15T10:22:44.624Z,12.95
2018-12-15T10:25:50.542Z,12.18
2018-12-15T10:28:57.415Z,11.30
2018-12-15T10:32:08.318Z,9.35
2018-12-15T10:35:14.118Z,11.60
2018-12-15T10:38:20.529Z,10.83
2018-12-15T10:41:26.595Z,12.25
2018-12-15T10:44:34.190Z,12.13
2018-12-15T10:47:39.856Z,11.73
2018-12-15T10:50:47.589Z,11.90
2018-12-15T10:53:54.743Z,11.80
2018-12-15T10:57:00.841Z,13.88
2018-12-15T11:00:15.671Z,11.55
2018-12-15T11:03:22.084Z,10.13
2018-12-15T11:06:29.694Z,12.05
2018-12-15T11:09:35.776Z,14.18
2018-12-15T11:12:42.416Z,12.33
2018-12-15T11:15:50.097Z,11.80
2018-12-15T11:18:57.040Z,13.58
2018-12-15T11:22:04.380Z,13.57
2018-12-15T11:25:10.932Z,13.75
2018-12-15T11:28:18.714Z,14.55
2018-12-15T11:31:25.449Z,13.38
2018-12-15T11:34:32.850Z,17.03
2018-12-15T11:37:39.585Z,14.00
2018-12-15T11:40:47.533Z,16.37
2018-12-15T11:43:53.694Z,16.45
2018-12-15T11:47:00.487Z,14.18
2018-12-15T11:50:07.483Z,15.90
2018-12-15T11:53:15.215Z,18.15
2018-12-15T11:56:25.143Z,16.67
2018-12-15T11:59:34.886Z,15.35
2018-12-15T12:02:41.903Z,15.55
2018-12-15T12:05:48.886Z,17.07
2018-12-15T12:08:55.675Z,20.35
2018-12-15T12:12:03.986Z,17.10
2018-12-15T12:15:11.461Z,16.48
2018-12-15T12:18:17.667Z,16.42
2018-12-15T12:21:25.169Z,16.05
2018-12-15T12:24:32.582Z,16.52
2018-12-15T12:27:41.656Z,18.27
2018-12-15T12:30:50.247Z,16.40
2018-12-15T12:33:56.131Z,16.37
2018-12-15T12:37:03.041Z,17.40
2018-12-15T12:40:10.589Z,15.28
2018-12-15T12:43:16.738Z,16.60
2018-12-15T12:46:23.272Z,17.35
2018-12-15T12:49:32.047Z,15.90
2018-12-15T12:52:38.883Z,15.55
2018-12-15T12:55:45.700Z,16.77
2018-12-15T12:58:52.233Z,18.37
2018-12-15T13:02:00.372Z,16.48
2018-12-15T13:05:08.114Z,17.10
2018-12-15T13:08:13.872Z,16.80
2018-12-15T13:11:21.381Z,17.32
2018-12-15T13:14:28.432Z,16.63
2018-12-15T13:17:37.131Z,15.95
2018-12-15T13:20:43.419Z,14.98
2018-12-15T13:23:49.717Z,15.70
2018-12-15T13:26:59.152Z,17.27
2018-12-15T13:30:04.234Z,15.25
2018-12-15T13:33:27.126Z,18.98
2018-12-15T13:36:33.786Z,17.10
2018-12-15T13:39:39.673Z,17.15
2018-12-15T13:42:46.443Z,16.30
2018-12-15T13:45:52.445Z,15.53
2018-12-15T13:48:58.184Z,17.80
2018-12-15T13:52:03.822Z,17.30
2018-12-15T13:55:10.739Z,18.02
2018-12-15T13:58:18.029Z,18.50
2018-12-15T14:01:24.029Z,15.03
2018-12-15T14:04:29.805Z,18.45
2018-12-15T14:07:35.535Z,15.25
2018-12-15T14:10:41.272Z,17.05
2018-12-15T14:13:47.413Z,15.95
2018-12-15T14:21:05.023Z,14.87
2018-12-15T14:24:26.480Z,15.53
2018-12-15T14:27:39.803Z,18.07
2018-12-15T14:30:46.326Z,16.30
2018-12-15T14:33:51.974Z,18.90
2018-12-15T14:36:58.692Z,19.23
2018-12-15T14:40:05.045Z,18.87
2018-12-15T14:43:11.079Z,20.88
2018-12-15T14:46:16.737Z,18.55
2018-12-15T14:49:22.628Z,18.73
2018-12-15T14:52:29.932Z,18.62
2018-12-15T14:55:36.171Z,18.87
2018-12-15T14:58:42.089Z,17.47
2018-12-15T15:01:47.988Z,20.50
2018-12-15T15:04:53.972Z,22.13
2018-12-15T15:07:59.853Z,20.37
2018-12-15T15:11:05.761Z,20.20
2018-12-15T15:14:11.649Z,19.37
2018-12-15T15:17:17.797Z,21.80
2018-12-15T15:20:29.668Z,19.62
2018-12-15T15:23:31.764Z,18.90
2018-12-15T15:26:37.431Z,18.85
2018-12-15T15:29:45.513Z,18.50
2018-12-15T15:32:51.283Z,20.37
2018-12-15T15:35:57.087Z,21.70
2018-12-15T15:39:03.783Z,16.30
2018-12-15T15:42:11.227Z,18.63
2018-12-15T15:45:17.079Z,18.82
2018-12-15T15:48:24.298Z,17.27
2018-12-15T15:52:33.790Z,25.37
2018-12-15T15:55:42.578Z,19.73
2018-12-15T15:58:48.697Z,22.20
2018-12-15T16:01:58.421Z,21.97
2018-12-15T16:05:04.987Z,19.50
2018-12-15T16:08:11.447Z,18.27
2018-12-15T16:11:17.400Z,21.40
2018-12-15T16:14:23.426Z,19.98
2018-12-15T16:17:29.037Z,20.30
2018-12-15T16:20:35.199Z,19.67
2018-12-15T16:23:41.449Z,20.40
2018-12-15T16:26:47.995Z,20.08
2018-12-15T16:29:54.293Z,17.57
2018-12-15T16:33:00.525Z,20.90
2018-12-15T16:36:06.896Z,19.92
2018-12-15T16:39:12.882Z,23.45
2018-12-15T16:42:18.771Z,21.05
2018-12-15T16:45:24.684Z,23.98
2018-12-15T16:48:30.592Z,19.17
2018-12-15T16:51:36.350Z,21.87
2018-12-15T16:54:42.453Z,21.60
2018-12-15T16:57:48.398Z,21.02
2018-12-15T17:00:54.890Z,22.35
2018-12-15T17:04:00.733Z,23.67
2018-12-15T17:07:07.062Z,21.42
2018-12-15T17:10:12.704Z,23.80
2018-12-15T17:13:19.672Z,23.27
2018-12-15T17:16:25.918Z,20.62
2018-12-15T17:21:17.589Z,23.60
2018-12-15T17:24:23.228Z,23.25
2018-12-15T17:27:32.335Z,22.87
2018-12-15T17:30:38.751Z,28.10
2018-12-15T17:33:46.593Z,26.00
2018-12-15T17:36:53.069Z,26.47
2018-12-15T17:39:58.838Z,26.15
2018-12-15T17:43:05.323Z,23.05
2018-12-15T17:46:11.222Z,22.45
2018-12-15T17:49:17.589Z,22.55
2018-12-15T17:52:23.607Z,25.97
2018-12-15T17:55:29.600Z,25.97
2018-12-15T17:58:35.493Z,24.83
2018-12-15T18:01:44.757Z,28.65
2018-12-15T18:04:50.661Z,27.15
2018-12-15T18:07:59.822Z,27.87
2018-12-15T18:11:07.624Z,23.10
2018-12-15T18:14:14.850Z,29.67
2018-12-15T18:17:22.303Z,23.90
2018-12-15T18:20:29.551Z,25.20
2018-12-15T18:23:36.817Z,28.80
2018-12-15T18:26:45.168Z,22.60
2018-12-15T18:29:52.560Z,24.70
2018-12-15T18:33:01.377Z,24.93
2018-12-15T18:36:08.330Z,25.97
2018-12-15T18:39:15.722Z,25.77
2018-12-15T18:42:22.995Z,27.05
2018-12-15T18:47:26.885Z,27.27
2018-12-15T18:50:35.175Z,27.77
2018-12-15T18:53:42.476Z,26.60
2018-12-15T18:56:50.114Z,25.43
2018-12-15T18:59:56.225Z,27.02
2018-12-15T19:03:02.317Z,23.18
2018-12-15T19:06:08.520Z,24.83
2018-12-15T19:09:14.439Z,23.62
2018-12-15T19:12:22.379Z,24.72
2018-12-15T19:15:28.339Z,23.87
2018-12-15T19:18:34.091Z,25.37
2018-12-15T19:21:40.229Z,24.52
2018-12-15T19:24:46.270Z,26.48
2018-12-15T19:27:52.301Z,23.90
2018-12-15T19:30:57.962Z,21.75
2018-12-15T19:34:04.447Z,24.77
2018-12-15T19:37:10.356Z,26.33
2018-12-15T19:40:15.987Z,23.10
2018-12-15T19:43:21.828Z,25.05
2018-12-15T19:46:27.440Z,24.85
2018-12-15T19:49:33.446Z,20.65
2018-12-15T19:52:39.121Z,20.83
2018-12-15T19:55:44.855Z,23.52
2018-12-15T19:58:50.818Z,22.53
2018-12-15T20:01:56.811Z,22.50
2018-12-15T20:05:02.689Z,22.42
2018-12-15T20:08:08.584Z,21.65
2018-12-15T20:11:15.785Z,25.75
2018-12-15T20:14:21.768Z,23.00
2018-12-15T20:17:28.093Z,20.95
2018-12-15T20:20:33.715Z,25.37
2018-12-15T20:23:39.329Z,24.18
2018-12-15T20:26:45.384Z,20.85
2018-12-15T20:29:50.995Z,23.37
2018-12-15T20:32:56.720Z,23.23
2018-12-15T20:36:04.383Z,20.00
2018-12-15T20:39:10.359Z,20.33
2018-12-15T20:42:16.284Z,21.90
2018-12-15T20:45:22.717Z,20.57
2018-12-15T20:48:28.343Z,20.90
2018-12-15T20:51:33.963Z,20.43
2018-12-15T20:54:39.741Z,22.00
2018-12-15T20:57:45.954Z,21.57
2018-12-15T21:00:51.960Z,21.65
2018-12-15T21:03:57.891Z,20.50
2018-12-15T21:07:04.274Z,23.10
2018-12-15T21:10:10.600Z,23.60
2018-12-15T21:13:16.974Z,22.10
2018-12-15T21:16:23.199Z,21.45
2018-12-15T21:19:29.210Z,21.17
2018-12-15T21:22:35.143Z,20.80
2018-12-15T21:25:41.165Z,20.55
2018-12-15T21:28:46.856Z,21.67
2018-12-15T21:31:56.780Z,21.70
2018-12-15T21:35:00.486Z,21.60
2018-12-15T21:38:07.290Z,22.98
2018-12-15T21:41:14.585Z,21.57
2018-12-15T21:44:20.211Z,23.83
2018-12-15T21:47:26.107Z,19.65
2018-12-15T21:50:32.027Z,25.27
2018-12-15T21:53:37.673Z,20.43
2018-12-15T21:56:43.366Z,21.80
2018-12-15T21:59:49.090Z,22.73
2018-12-15T22:02:54.701Z,23.57
2018-12-15T22:06:00.334Z,25.55
2018-12-15T22:09:08.488Z,23.47
2018-12-15T22:12:14.848Z,23.35
2018-12-15T22:15:20.504Z,24.52
2018-12-15T22:18:26.448Z,23.77
2018-12-15T22:21:32.237Z,21.53
2018-12-15T22:24:37.868Z,21.53
2018-12-15T22:27:43.473Z,21.62
2018-12-15T22:30:50.333Z,20.10
2018-12-15T22:33:56.069Z,19.23
2018-12-15T22:37:01.708Z,18.87
2018-12-15T22:40:08.305Z,21.35
2018-12-15T22:43:14.092Z,24.20
2018-12-15T22:46:20.020Z,21.13
2018-12-15T22:49:25.678Z,24.40
2018-12-15T22:52:31.301Z,25.40
2018-12-15T22:55:37.216Z,24.80
2018-12-15T22:58:42.873Z,23.47
2018-12-15T23:01:49.120Z,24.23
2018-12-15T23:04:55.636Z,23.85
2018-12-15T23:08:01.716Z,23.87
2018-12-15T23:11:07.609Z,22.75
2018-12-15T23:14:13.279Z,23.98
2018-12-15T23:17:19.185Z,23.85
2018-12-15T23:20:24.857Z,25.00
2018-12-15T23:23:30.476Z,22.75
2018-12-15T23:26:37.522Z,25.62
2018-12-15T23:29:43.098Z,22.10
2018-12-15T23:32:49.009Z,24.23
2018-12-15T23:35:54.610Z,26.10
2018-12-15T23:39:00.253Z,25.10
2018-12-15T23:42:06.595Z,23.35
2018-12-15T23:45:12.903Z,22.85
2018-12-15T23:48:18.485Z,20.62
2018-12-15T23:51:24.168Z,21.70
2018-12-15T23:54:30.081Z,19.93
2018-12-15T23:57:36.024Z,19.90
